Time;durP1;ratioP1;P1;durP2;ratioP2;P2;SDS_P1;SDS_P2;PMS_P1;PMS_P2;Temp;Humidity;BMP_temperature;BMP_pressure;BME280_temperature;BME280_humidity;BME280_pressure;Samples;Min_cycle;Max_cycle;Signal;HPM_P1;HPM_P2
2023/09/09 00:02:12;;;;;;;;;;;18.90;59.80;;;;;;5029850;28;19980;-71
2023/09/09 00:04:39;;;;;;;;;;;18.90;60.00;;;;;;5031190;28;19921;-70
2023/09/09 00:07:06;;;;;;;;;;;18.90;59.40;;;;;;5030855;28;19963;-70
2023/09/09 00:09:32;;;;;;;;;;;18.80;60.20;;;;;;5047702;28;20269;-71
2023/09/09 00:11:58;;;;;;;;;;;18.70;59.80;;;;;;5029829;28;19929;-70
2023/09/09 00:14:25;;;;;;;;;;;18.70;59.90;;;;;;5032150;28;20424;-70
2023/09/09 00:16:51;;;;;;;;;;;18.60;59.90;;;;;;5030823;28;19991;-70
2023/09/09 00:19:21;;;;;;;;;;;18.50;59.70;;;;;;5032551;28;19925;-71
2023/09/09 00:21:47;;;;;;;;;;;18.50;60.00;;;;;;5030175;28;19944;-70
2023/09/09 00:24:13;;;;;;;;;;;18.40;59.90;;;;;;5031305;28;19925;-71
2023/09/09 00:26:39;;;;;;;;;;;18.40;60.30;;;;;;5031900;28;20013;-70
2023/09/09 00:29:05;;;;;;;;;;;18.40;60.20;;;;;;5032403;28;19925;-70
2023/09/09 00:31:30;;;;;;;;;;;18.40;60.50;;;;;;5031144;28;20378;-71
2023/09/09 00:33:56;;;;;;;;;;;18.30;60.50;;;;;;5032322;28;20340;-71
2023/09/09 00:36:22;;;;;;;;;;;18.30;60.60;;;;;;5030593;28;20382;-71
2023/09/09 00:38:48;;;;;;;;;;;18.30;60.50;;;;;;5047314;28;19987;-71
2023/09/09 00:41:16;;;;;;;;;;;18.30;60.80;;;;;;5031111;28;19996;-71
2023/09/09 00:44:04;;;;;;;;;;;18.30;60.80;;;;;;5031123;28;19995;-71
2023/09/09 00:46:30;;;;;;;;;;;18.30;60.90;;;;;;5031805;28;19979;-71
2023/09/09 00:48:56;;;;;;;;;;;18.20;60.90;;;;;;5032360;28;20040;-70
2023/09/09 00:51:22;;;;;;;;;;;18.30;61.50;;;;;;5033129;28;19933;-71
2023/09/09 00:53:48;;;;;;;;;;;18.20;61.40;;;;;;5036157;28;20325;-71
2023/09/09 00:56:14;;;;;;;;;;;18.20;61.50;;;;;;5034112;28;19928;-71
2023/09/09 00:58:40;;;;;;;;;;;18.10;61.60;;;;;;5035991;28;19932;-71
2023/09/09 01:01:06;;;;;;;;;;;18.10;61.50;;;;;;5050245;28;19921;-71
2023/09/09 01:03:32;;;;;;;;;;;18.10;61.70;;;;;;5035980;28;19926;-71
2023/09/09 01:05:59;;;;;;;;;;;18.10;61.20;;;;;;5035163;28;20309;-71
2023/09/09 01:08:26;;;;;;;;;;;18.20;61.40;;;;;;5034360;28;19936;-71
2023/09/09 01:10:53;;;;;;;;;;;18.20;61.50;;;;;;5033478;28;20610;-71
2023/09/09 01:13:19;;;;;;;;;;;18.10;61.40;;;;;;5034169;28;19979;-71
2023/09/09 01:15:45;;;;;;;;;;;18.10;61.80;;;;;;5033664;28;20344;-71
2023/09/09 01:18:11;;;;;;;;;;;18.10;61.50;;;;;;5034054;28;19925;-71
2023/09/09 01:20:39;;;;;;;;;;;18.10;61.70;;;;;;5034480;28;19948;-71
2023/09/09 01:23:05;;;;;;;;;;;18.10;61.60;;;;;;5034180;28;20007;-71
2023/09/09 01:25:31;;;;;;;;;;;18.00;61.30;;;;;;5034758;28;20409;-71
2023/09/09 01:27:56;;;;;;;;;;;18.00;61.70;;;;;;5035237;28;19929;-71
2023/09/09 01:30:22;;;;;;;;;;;18.00;61.60;;;;;;5034423;28;20446;-71
2023/09/09 01:32:48;;;;;;;;;;;18.00;61.80;;;;;;5035354;28;19929;-70
2023/09/09 01:35:14;;;;;;;;;;;17.90;62.10;;;;;;5033524;28;20370;-71
2023/09/09 01:37:40;;;;;;;;;;;17.80;62.00;;;;;;5033993;28;19952;-71
2023/09/09 01:40:11;;;;;;;;;;;17.80;61.80;;;;;;5034226;28;20154;-71
2023/09/09 01:42:38;;;;;;;;;;;17.70;61.00;;;;;;5035290;28;19932;-71
2023/09/09 01:45:04;;;;;;;;;;;17.70;61.10;;;;;;5033552;28;19939;-71
2023/09/09 01:47:30;;;;;;;;;;;17.70;61.60;;;;;;5033428;28;20010;-70
2023/09/09 01:49:56;;;;;;;;;;;17.70;61.70;;;;;;5033551;28;20358;-71
2023/09/09 01:52:22;;;;;;;;;;;17.60;62.00;;;;;;5032795;28;19929;-70
2023/09/09 01:54:47;;;;;;;;;;;17.50;61.80;;;;;;5033406;28;19923;-71
2023/09/09 01:57:16;;;;;;;;;;;17.40;61.80;;;;;;5034326;28;20000;-71
2023/09/09 01:59:43;;;;;;;;;;;17.40;61.50;;;;;;5033609;28;19969;-71
2023/09/09 02:02:09;;;;;;;;;;;17.40;61.90;;;;;;5031792;28;19921;-71
2023/09/09 02:04:35;;;;;;;;;;;17.40;62.20;;;;;;5033381;28;19921;-70
2023/09/09 02:07:00;;;;;;;;;;;17.40;62.10;;;;;;5034187;28;20308;-71
2023/09/09 02:09:26;;;;;;;;;;;17.30;62.00;;;;;;5033240;28;19925;-70
2023/09/09 02:14:31;;;;;;;;;;;17.30;61.90;;;;;;5034337;28;20382;-71
2023/09/09 02:16:57;;;;;;;;;;;17.30;62.00;;;;;;5032664;28;19963;-71
2023/09/09 02:19:23;;;;;;;;;;;17.20;62.10;;;;;;5016594;28;19931;-71
2023/09/09 02:21:49;;;;;;;;;;;17.30;62.50;;;;;;5032105;28;19921;-71
2023/09/09 02:24:15;;;;;;;;;;;17.20;62.50;;;;;;5034458;28;19925;-71
2023/09/09 02:26:41;;;;;;;;;;;17.20;62.40;;;;;;5032644;28;19925;-71
2023/09/09 02:29:07;;;;;;;;;;;17.20;62.60;;;;;;5049332;28;20436;-71
2023/09/09 02:31:33;;;;;;;;;;;17.20;62.70;;;;;;5033343;28;19999;-70
2023/09/09 02:33:59;;;;;;;;;;;17.20;62.60;;;;;;5016440;28;19925;-71
2023/09/09 02:36:25;;;;;;;;;;;17.20;62.60;;;;;;5032279;28;19917;-71
2023/09/09 02:38:51;;;;;;;;;;;17.10;62.50;;;;;;5049461;28;19965;-71
2023/09/09 02:41:17;;;;;;;;;;;17.10;62.80;;;;;;5032776;28;19967;-71
2023/09/09 02:43:43;;;;;;;;;;;17.10;62.80;;;;;;5034050;28;20040;-71
2023/09/09 02:46:09;;;;;;;;;;;17.10;62.90;;;;;;5033451;28;19917;-71
2023/09/09 02:48:35;;;;;;;;;;;17.10;63.00;;;;;;5032690;28;20300;-71
2023/09/09 02:51:00;;;;;;;;;;;17.10;63.00;;;;;;5032858;28;19921;-71
2023/09/09 02:53:26;;;;;;;;;;;17.00;62.80;;;;;;5032577;28;20382;-71
2023/09/09 02:55:52;;;;;;;;;;;17.00;63.00;;;;;;5033197;28;20050;-70
2023/09/09 02:58:18;;;;;;;;;;;17.00;62.90;;;;;;5033503;28;20024;-71
2023/09/09 03:00:44;;;;;;;;;;;17.00;62.80;;;;;;5032653;28;19929;-71
2023/09/09 03:03:10;;;;;;;;;;;17.00;62.90;;;;;;5032324;28;19945;-71
2023/09/09 03:05:36;;;;;;;;;;;17.00;63.10;;;;;;5033022;28;20316;-71
2023/09/09 03:08:03;;;;;;;;;;;16.90;63.30;;;;;;5033465;28;19925;-71
2023/09/09 03:10:29;;;;;;;;;;;16.90;63.20;;;;;;5032354;28;19936;-71
2023/09/09 03:12:56;;;;;;;;;;;16.90;63.50;;;;;;5031783;28;19929;-71
2023/09/09 03:18:07;;;;;;;;;;;16.90;63.10;;;;;;5033065;28;19932;-71
2023/09/09 03:20:33;;;;;;;;;;;16.80;63.20;;;;;;5032132;28;19921;-71
2023/09/09 03:22:59;;;;;;;;;;;16.80;63.30;;;;;;5033244;28;19971;-71
2023/09/09 03:25:25;;;;;;;;;;;16.80;63.00;;;;;;5032612;28;20414;-71
2023/09/09 03:27:51;;;;;;;;;;;16.80;62.20;;;;;;5031855;28;19929;-71
2023/09/09 03:30:17;;;;;;;;;;;16.70;62.80;;;;;;5030500;28;19967;-71
2023/09/09 03:32:43;;;;;;;;;;;16.70;62.80;;;;;;5031793;28;19952;-71
2023/09/09 03:35:09;;;;;;;;;;;16.70;62.80;;;;;;5032223;28;20289;-71
2023/09/09 03:37:35;;;;;;;;;;;16.60;62.50;;;;;;5031593;28;19929;-71
2023/09/09 03:40:03;;;;;;;;;;;16.60;62.40;;;;;;5031400;28;20004;-71
2023/09/09 03:42:29;;;;;;;;;;;16.40;62.00;;;;;;5030829;28;19921;-70
2023/09/09 03:44:54;;;;;;;;;;;16.40;62.30;;;;;;5031393;28;20337;-71
2023/09/09 03:47:21;;;;;;;;;;;16.30;62.40;;;;;;5031031;28;20016;-71
2023/09/09 03:49:48;;;;;;;;;;;16.30;62.40;;;;;;5047824;28;19925;-71
2023/09/09 03:52:14;;;;;;;;;;;16.30;62.50;;;;;;5012430;28;20020;-71
2023/09/09 03:54:40;;;;;;;;;;;16.20;62.50;;;;;;5012684;28;20287;-71
2023/09/09 03:57:05;;;;;;;;;;;16.20;62.60;;;;;;5012402;28;19937;-71
2023/09/09 03:59:33;;;;;;;;;;;16.20;62.60;;;;;;5013071;28;19963;-71
2023/09/09 04:01:58;;;;;;;;;;;16.20;62.80;;;;;;5027617;28;19956;-71
2023/09/09 04:04:24;;;;;;;;;;;16.20;63.10;;;;;;5031339;28;20012;-71
2023/09/09 04:06:50;;;;;;;;;;;16.20;63.30;;;;;;5047447;28;19940;-71
2023/09/09 04:09:22;;;;;;;;;;;16.20;63.30;;;;;;5031327;28;19921;-71
2023/09/09 04:11:48;;;;;;;;;;;16.20;63.30;;;;;;5030123;28;19982;-71
2023/09/09 04:14:14;;;;;;;;;;;16.20;63.40;;;;;;5031083;28;19933;-71
2023/09/09 04:16:40;;;;;;;;;;;16.10;63.40;;;;;;5032030;28;20334;-71
2023/09/09 04:19:05;;;;;;;;;;;16.10;63.20;;;;;;5031200;28;20281;-71
2023/09/09 04:21:31;;;;;;;;;;;16.00;63.00;;;;;;5046620;28;19922;-71
2023/09/09 04:23:57;;;;;;;;;;;16.00;63.20;;;;;;5032034;28;20012;-71
2023/09/09 04:26:23;;;;;;;;;;;16.00;63.00;;;;;;5047041;28;19947;-71
2023/09/09 04:28:49;;;;;;;;;;;15.90;63.10;;;;;;5030813;28;20008;-71
2023/09/09 04:31:15;;;;;;;;;;;15.90;63.50;;;;;;5020076;28;19922;-71
2023/09/09 04:33:41;;;;;;;;;;;15.90;63.90;;;;;;5012530;28;20345;-71
2023/09/09 04:36:06;;;;;;;;;;;15.90;63.50;;;;;;5027108;28;20012;-71
2023/09/09 04:38:32;;;;;;;;;;;15.80;63.40;;;;;;5027627;28;20339;-71
2023/09/09 04:40:58;;;;;;;;;;;15.80;63.50;;;;;;5011090;28;19921;-71
2023/09/09 04:43:24;;;;;;;;;;;15.80;63.40;;;;;;5012528;28;19941;-71
2023/09/09 04:45:50;;;;;;;;;;;15.80;63.30;;;;;;5011829;28;19922;-71
2023/09/09 04:48:16;;;;;;;;;;;15.70;63.50;;;;;;5011089;28;20019;-71
2023/09/09 04:50:42;;;;;;;;;;;15.60;63.80;;;;;;5026454;28;20275;-71
2023/09/09 04:53:08;;;;;;;;;;;15.70;63.90;;;;;;5012138;28;20013;-71
2023/09/09 04:55:34;;;;;;;;;;;15.70;64.00;;;;;;5011657;28;20293;-70
2023/09/09 04:58:00;;;;;;;;;;;15.60;64.60;;;;;;5012290;28;19931;-71
2023/09/09 05:00:26;;;;;;;;;;;15.60;64.80;;;;;;5011041;28;20363;-71
2023/09/09 05:02:52;;;;;;;;;;;15.70;64.80;;;;;;5012211;28;19940;-71
2023/09/09 05:05:18;;;;;;;;;;;15.70;64.90;;;;;;5011841;28;20282;-71
2023/09/09 05:07:44;;;;;;;;;;;15.80;64.70;;;;;;5027377;28;19991;-71
2023/09/09 05:10:09;;;;;;;;;;;15.90;64.60;;;;;;5011094;28;19917;-71
2023/09/09 05:15:20;;;;;;;;;;;15.90;64.50;;;;;;5011476;28;19925;-71
2023/09/09 05:17:46;;;;;;;;;;;16.00;65.30;;;;;;5012180;28;20024;-71
2023/09/09 05:20:12;;;;;;;;;;;16.00;65.60;;;;;;5010864;28;20008;-71
2023/09/09 05:22:37;;;;;;;;;;;16.10;65.50;;;;;;5010692;28;19932;-71
2023/09/09 05:25:04;;;;;;;;;;;16.10;65.30;;;;;;5011580;28;19918;-71
2023/09/09 05:27:30;;;;;;;;;;;16.10;65.10;;;;;;5011583;28;19926;-71
2023/09/09 05:29:55;;;;;;;;;;;16.20;65.30;;;;;;5011793;28;20000;-71
2023/09/09 05:32:22;;;;;;;;;;;16.20;65.20;;;;;;5011104;28;19921;-71
2023/09/09 05:34:48;;;;;;;;;;;16.20;65.50;;;;;;5010454;28;19922;-71
2023/09/09 05:37:13;;;;;;;;;;;16.30;65.30;;;;;;5011528;28;20387;-71
2023/09/09 05:39:39;;;;;;;;;;;16.30;65.40;;;;;;5015166;28;19955;-71
2023/09/09 05:42:06;;;;;;;;;;;16.30;65.50;;;;;;5014278;28;20430;-71
2023/09/09 05:44:34;;;;;;;;;;;16.40;65.40;;;;;;5030459;28;19922;-71
2023/09/09 05:47:00;;;;;;;;;;;16.40;65.30;;;;;;5013444;28;19925;-71
2023/09/09 05:49:26;;;;;;;;;;;16.40;66.00;;;;;;5014007;28;19922;-71
2023/09/09 05:51:52;;;;;;;;;;;16.40;66.10;;;;;;5014153;28;20370;-71
2023/09/09 05:54:18;;;;;;;;;;;16.50;66.30;;;;;;5013852;28;20344;-71
2023/09/09 05:56:43;;;;;;;;;;;16.50;66.30;;;;;;5014580;28;20031;-70
2023/09/09 05:59:10;;;;;;;;;;;16.50;67.10;;;;;;5015279;28;20349;-71
2023/09/09 06:01:36;;;;;;;;;;;16.50;67.60;;;;;;5014004;28;19961;-71
2023/09/09 06:04:02;;;;;;;;;;;16.60;67.20;;;;;;5013784;28;20016;-71
2023/09/09 06:06:27;;;;;;;;;;;16.60;67.00;;;;;;5014332;28;19967;-71
2023/09/09 06:08:53;;;;;;;;;;;16.70;67.20;;;;;;5013645;28;19932;-71
2023/09/09 06:11:19;;;;;;;;;;;16.80;68.00;;;;;;5013632;28;19922;-71
2023/09/09 06:13:45;;;;;;;;;;;16.80;68.20;;;;;;5014513;28;19926;-70
2023/09/09 06:16:11;;;;;;;;;;;16.90;69.00;;;;;;5012936;28;20008;-71
2023/09/09 06:18:37;;;;;;;;;;;17.00;68.50;;;;;;5014712;28;20406;-71
2023/09/09 06:21:03;;;;;;;;;;;17.00;68.30;;;;;;5013498;28;19964;-71
2023/09/09 06:23:29;;;;;;;;;;;17.10;67.40;;;;;;5014302;28;19926;-71
2023/09/09 06:25:54;;;;;;;;;;;17.20;68.20;;;;;;4996468;28;20362;-71
2023/09/09 06:28:20;;;;;;;;;;;17.30;68.30;;;;;;5014381;28;20420;-71
2023/09/09 06:30:46;;;;;;;;;;;17.40;68.20;;;;;;5012013;28;19926;-71
2023/09/09 06:33:12;;;;;;;;;;;17.50;67.90;;;;;;5014416;28;20020;-71
2023/09/09 06:36:05;;;;;;;;;;;17.60;68.00;;;;;;5012577;28;19924;-71
2023/09/09 06:38:31;;;;;;;;;;;17.70;67.90;;;;;;5014353;28;20024;-71
2023/09/09 06:40:56;;;;;;;;;;;17.80;68.10;;;;;;5011941;28;19927;-71
2023/09/09 06:43:23;;;;;;;;;;;17.90;68.10;;;;;;5014376;28;19930;-71
2023/09/09 06:45:49;;;;;;;;;;;18.00;68.10;;;;;;5013677;28;19921;-71
2023/09/09 06:48:18;;;;;;;;;;;18.10;68.20;;;;;;5012544;28;19929;-71
2023/09/09 06:50:45;;;;;;;;;;;18.20;68.40;;;;;;5011815;28;20323;-71
2023/09/09 06:53:11;;;;;;;;;;;18.30;68.10;;;;;;5012579;28;20283;-71
2023/09/09 06:55:37;;;;;;;;;;;18.50;68.30;;;;;;5028507;28;19944;-71
2023/09/09 06:58:03;;;;;;;;;;;18.60;69.00;;;;;;5012613;28;20363;-70
2023/09/09 07:00:29;;;;;;;;;;;18.70;67.70;;;;;;5011433;28;20291;-71
2023/09/09 07:02:55;;;;;;;;;;;18.80;68.00;;;;;;5013809;28;20436;-70
2023/09/09 07:05:22;;;;;;;;;;;19.00;67.70;;;;;;5002184;28;19957;-71
2023/09/09 07:07:48;;;;;;;;;;;19.10;67.60;;;;;;5006107;28;19925;-70
2023/09/09 07:10:13;;;;;;;;;;;19.30;67.20;;;;;;5012128;28;19979;-71
2023/09/09 07:12:41;;;;;;;;;;;19.40;66.80;;;;;;5007910;28;19926;-71
2023/09/09 07:15:08;;;;;;;;;;;19.60;66.70;;;;;;5012886;28;19917;-71
2023/09/09 07:17:34;;;;;;;;;;;19.80;65.50;;;;;;4995843;28;19925;-70
2023/09/09 07:19:59;;;;;;;;;;;19.90;65.70;;;;;;5011967;28;20294;-71
2023/09/09 07:22:26;;;;;;;;;;;20.20;66.50;;;;;;5011987;28;20374;-71
2023/09/09 07:24:51;;;;;;;;;;;20.70;64.50;;;;;;4992522;28;19961;-70
2023/09/09 07:27:17;;;;;;;;;;;21.50;64.20;;;;;;4992036;28;20347;-71
2023/09/09 07:29:43;;;;;;;;;;;22.20;63.00;;;;;;4992795;28;20302;-71
2023/09/09 07:32:09;;;;;;;;;;;22.90;62.90;;;;;;4991383;28;20025;-71
2023/09/09 07:34:35;;;;;;;;;;;23.60;61.70;;;;;;4992135;28;19928;-71
2023/09/09 07:37:01;;;;;;;;;;;24.40;57.80;;;;;;4991283;28;19928;-71
2023/09/09 07:39:27;;;;;;;;;;;25.10;56.70;;;;;;4975548;28;20378;-71
2023/09/09 07:41:53;;;;;;;;;;;25.90;54.60;;;;;;4990659;28;19922;-71
2023/09/09 07:44:19;;;;;;;;;;;26.70;53.00;;;;;;4993571;28;19949;-71
2023/09/09 07:46:45;;;;;;;;;;;27.40;51.40;;;;;;4991856;28;19921;-71
2023/09/09 07:49:11;;;;;;;;;;;28.10;48.80;;;;;;4991728;28;20064;-71
2023/09/09 07:51:38;;;;;;;;;;;28.70;46.40;;;;;;4991013;28;19929;-72
2023/09/09 07:54:04;;;;;;;;;;;29.30;44.20;;;;;;4975687;28;20275;-71
2023/09/09 07:56:29;;;;;;;;;;;29.80;41.20;;;;;;4991528;28;19922;-71
2023/09/09 07:58:55;;;;;;;;;;;30.40;39.90;;;;;;4993138;28;19922;-71
2023/09/09 08:01:21;;;;;;;;;;;30.90;38.10;;;;;;4990352;28;20365;-71
2023/09/09 08:03:47;;;;;;;;;;;31.40;37.40;;;;;;4991920;28;20016;-71
2023/09/09 08:06:13;;;;;;;;;;;31.90;36.00;;;;;;4992995;28;19925;-71
2023/09/09 08:08:39;;;;;;;;;;;32.50;34.10;;;;;;4992099;28;20385;-71
2023/09/09 08:11:05;;;;;;;;;;;33.10;32.90;;;;;;4974555;28;20402;-71
2023/09/09 08:13:31;;;;;;;;;;;33.60;32.40;;;;;;4992972;28;19926;-71
2023/09/09 08:15:58;;;;;;;;;;;34.00;31.30;;;;;;4991349;28;19918;-72
2023/09/09 08:18:24;;;;;;;;;;;34.50;29.50;;;;;;4975351;28;20024;-72
2023/09/09 08:20:50;;;;;;;;;;;35.00;30.00;;;;;;4992094;28;20004;-72
2023/09/09 08:23:17;;;;;;;;;;;35.60;29.00;;;;;;4992882;28;19925;-72
2023/09/09 08:25:43;;;;;;;;;;;36.30;27.80;;;;;;4991369;28;19961;-72
2023/09/09 08:28:09;;;;;;;;;;;36.90;27.30;;;;;;4991541;28;19936;-72
2023/09/09 08:30:35;;;;;;;;;;;37.50;26.20;;;;;;4992157;28;19925;-72
2023/09/09 08:33:01;;;;;;;;;;;38.00;25.30;;;;;;4991633;28;20333;-72
2023/09/09 08:35:30;;;;;;;;;;;38.50;23.70;;;;;;4991067;28;20267;-72
2023/09/09 08:37:56;;;;;;;;;;;38.90;23.20;;;;;;4975197;28;19969;-72
2023/09/09 08:40:21;;;;;;;;;;;39.50;22.50;;;;;;4974130;28;20016;-72
2023/09/09 08:43:25;;;;;;;;;;;40.00;22.00;;;;;;4991548;28;19926;-72
2023/09/09 08:46:09;;;;;;;;;;;40.60;20.60;;;;;;4990973;28;19925;-72
2023/09/09 08:48:37;;;;;;;;;;;40.90;19.70;;;;;;4992833;28;20215;-72
2023/09/09 08:51:04;;;;;;;;;;;41.30;19.70;;;;;;4990358;28;19925;-72
2023/09/09 08:53:31;;;;;;;;;;;41.70;19.60;;;;;;4991322;28;19929;-71
2023/09/09 08:55:58;;;;;;;;;;;42.40;19.20;;;;;;4990769;28;20024;-72
2023/09/09 08:58:25;;;;;;;;;;;42.90;17.20;;;;;;4992821;28;19932;-72
2023/09/09 09:00:51;;;;;;;;;;;43.30;17.60;;;;;;4991538;28;19960;-72
2023/09/09 09:03:18;;;;;;;;;;;43.70;17.40;;;;;;4991229;28;19932;-72
2023/09/09 09:05:44;;;;;;;;;;;44.00;17.10;;;;;;4990853;28;20294;-72
2023/09/09 09:08:10;;;;;;;;;;;44.30;16.90;;;;;;4992403;28;19976;-72
2023/09/09 09:10:40;;;;;;;;;;;44.70;16.30;;;;;;4991285;28;20334;-72
2023/09/09 09:13:08;;;;;;;;;;;45.20;15.70;;;;;;5008954;28;19926;-71
2023/09/09 09:15:36;;;;;;;;;;;45.60;15.20;;;;;;4994544;28;20425;-72
2023/09/09 09:18:02;;;;;;;;;;;46.10;15.10;;;;;;4996173;28;19930;-72
2023/09/09 09:20:30;;;;;;;;;;;46.30;14.40;;;;;;4995092;28;19926;-72
2023/09/09 09:22:58;;;;;;;;;;;46.60;14.20;;;;;;4994922;28;20024;-72
2023/09/09 09:25:24;;;;;;;;;;;46.80;13.90;;;;;;4994223;28;19929;-72
2023/09/09 09:27:50;;;;;;;;;;;46.60;13.30;;;;;;4994830;28;19922;-72
2023/09/09 09:30:34;;;;;;;;;;;46.90;13.80;;;;;;4993637;28;20349;-71
2023/09/09 09:33:00;;;;;;;;;;;47.40;13.20;;;;;;4994868;28;19967;-72
2023/09/09 09:35:28;;;;;;;;;;;47.50;13.30;;;;;;4995284;28;19926;-71
2023/09/09 09:38:13;;;;;;;;;;;48.00;13.40;;;;;;4994724;28;19972;-72
2023/09/09 09:40:40;;;;;;;;;;;48.40;12.90;;;;;;4977157;28;20382;-72
2023/09/09 09:43:26;;;;;;;;;;;48.80;12.00;;;;;;4994619;28;19922;-72
2023/09/09 09:45:51;;;;;;;;;;;49.20;12.50;;;;;;4994124;28;19957;-71
2023/09/09 09:48:36;;;;;;;;;;;49.50;12.40;;;;;;4995815;28;19977;-72
2023/09/09 09:51:02;;;;;;;;;;;49.80;11.90;;;;;;4993399;28;19926;-72
2023/09/09 09:53:28;;;;;;;;;;;50.20;11.90;;;;;;4977941;28;20271;-72
2023/09/09 09:55:55;;;;;;;;;;;50.50;11.50;;;;;;4993738;28;20424;-72
2023/09/09 09:58:22;;;;;;;;;;;50.70;10.70;;;;;;4994265;28;19968;-71
2023/09/09 10:00:51;;;;;;;;;;;50.80;11.20;;;;;;4994047;28;20042;-71
2023/09/09 10:03:19;;;;;;;;;;;51.20;11.20;;;;;;5006547;28;19925;-71
2023/09/09 10:05:48;;;;;;;;;;;51.20;10.60;;;;;;4998748;28;19984;-72
2023/09/09 10:08:36;;;;;;;;;;;51.60;10.30;;;;;;5013210;28;20277;-72
2023/09/09 10:11:20;;;;;;;;;;;51.80;9.60;;;;;;5012570;28;19921;-72
2023/09/09 10:14:25;;;;;;;;;;;51.70;9.10;;;;;;5013571;28;20275;-71
2023/09/09 10:16:53;;;;;;;;;;;51.50;10.20;;;;;;5014039;28;19918;-72
2023/09/09 10:19:19;;;;;;;;;;;51.70;9.80;;;;;;5010312;28;20020;-72
2023/09/09 10:21:47;;;;;;;;;;;51.80;9.70;;;;;;5012543;28;19941;-71
2023/09/09 10:24:14;;;;;;;;;;;52.40;10.30;;;;;;5014268;28;19940;-72
2023/09/09 10:26:41;;;;;;;;;;;53.00;10.10;;;;;;5013897;28;19918;-71
2023/09/09 10:29:08;;;;;;;;;;;53.10;9.90;;;;;;5014890;28;19930;-71
2023/09/09 10:31:35;;;;;;;;;;;53.30;10.00;;;;;;5012310;28;19925;-71
2023/09/09 10:34:02;;;;;;;;;;;53.00;9.70;;;;;;5013232;28;20010;-71
2023/09/09 10:36:31;;;;;;;;;;;51.10;10.30;;;;;;5012574;28;19929;-72
2023/09/09 10:38:57;;;;;;;;;;;49.20;11.70;;;;;;5012972;28;19929;-71
2023/09/09 10:41:22;;;;;;;;;;;48.00;12.80;;;;;;5028554;28;19963;-72
2023/09/09 10:43:48;;;;;;;;;;;47.90;12.10;;;;;;5014473;28;20389;-72
2023/09/09 10:46:14;;;;;;;;;;;47.80;12.20;;;;;;5012505;28;20015;-71
2023/09/09 10:48:44;;;;;;;;;;;47.70;13.20;;;;;;5014209;28;20020;-71
2023/09/09 10:51:13;;;;;;;;;;;48.40;12.50;;;;;;5011841;28;19921;-72
2023/09/09 10:53:38;;;;;;;;;;;47.40;12.90;;;;;;4996359;28;20432;-72
2023/09/09 10:56:23;;;;;;;;;;;47.00;13.00;;;;;;5013332;28;19964;-71
2023/09/09 10:58:51;;;;;;;;;;;46.00;13.70;;;;;;5014087;28;19929;-72
2023/09/09 11:01:35;;;;;;;;;;;46.30;13.90;;;;;;5011476;28;19975;-71
2023/09/09 11:04:01;;;;;;;;;;;46.10;14.30;;;;;;5012492;28;19989;-72
2023/09/09 11:06:29;;;;;;;;;;;45.30;14.60;;;;;;5028735;28;20402;-72
2023/09/09 11:08:56;;;;;;;;;;;44.70;14.60;;;;;;5028881;28;19937;-71
2023/09/09 11:11:43;;;;;;;;;;;44.00;15.50;;;;;;5011297;28;19928;-72
2023/09/09 11:14:10;;;;;;;;;;;45.20;14.70;;;;;;5013729;28;19932;-72
2023/09/09 11:16:55;;;;;;;;;;;47.20;13.10;;;;;;5012032;28;20314;-71
2023/09/09 11:19:23;;;;;;;;;;;48.90;11.70;;;;;;5013612;28;19925;-71
2023/09/09 11:22:10;;;;;;;;;;;49.90;10.50;;;;;;5011505;28;19952;-71
2023/09/09 11:24:35;;;;;;;;;;;50.50;9.50;;;;;;5012399;28;20297;-72
2023/09/09 11:27:02;;;;;;;;;;;50.80;9.70;;;;;;5011962;28;19917;-72
2023/09/09 11:29:28;;;;;;;;;;;51.20;9.90;;;;;;5012114;28;19937;-71
2023/09/09 11:31:54;;;;;;;;;;;50.60;9.90;;;;;;5011021;28;19922;-71
2023/09/09 11:34:39;;;;;;;;;;;49.70;10.60;;;;;;5013509;28;20377;-72
2023/09/09 11:37:05;;;;;;;;;;;48.70;11.00;;;;;;5011979;28;20350;-72
2023/09/09 11:39:58;;;;;;;;;;;49.70;10.60;;;;;;5013475;28;19980;-71
2023/09/09 11:42:24;;;;;;;;;;;50.40;9.80;;;;;;5012582;28;19921;-72
2023/09/09 11:46:04;;;;;;;2.15;1.88;;;49.60;10.90;;;;;;5150313;27;20612;-72
2023/09/09 11:48:30;;;;;;;2.00;1.80;;;49.60;10.60;;;;;;5126773;28;20040;-73
2023/09/09 11:50:56;;;;;;;2.10;1.85;;;49.30;11.00;;;;;;5085174;28;20071;-72
2023/09/09 11:53:23;;;;;;;2.40;2.20;;;48.40;11.40;;;;;;5031012;28;20052;-72
2023/09/09 11:56:07;;;;;;;1.98;1.73;;;48.40;11.80;;;;;;5047496;28;20065;-72
2023/09/09 11:58:53;;;;;;;2.30;1.70;;;49.80;10.80;;;;;;5047699;28;20037;-72
2023/09/09 12:01:20;;;;;;;1.95;1.60;;;50.40;10.30;;;;;;5037082;28;20045;-72
2023/09/09 12:03:49;;;;;;;2.55;1.80;;;49.60;11.00;;;;;;5045410;28;20056;-72
2023/09/09 12:06:35;;;;;;;3.20;2.00;;;48.50;11.30;;;;;;5027299;28;20038;-72
2023/09/09 12:09:02;;;;;;;1.83;1.50;;;48.20;11.40;;;;;;5039417;28;20037;-72
2023/09/09 12:11:29;;;;;;;1.67;1.45;;;48.20;11.80;;;;;;5062808;28;20053;-73
2023/09/09 12:13:55;;;;;;;1.15;1.05;;;47.80;11.70;;;;;;5030762;28;20041;-72
2023/09/09 12:16:22;;;;;;;1.80;1.40;;;46.00;13.20;;;;;;5046844;28;20120;-72
2023/09/09 12:19:11;;;;;;;1.25;1.10;;;44.40;13.60;;;;;;5063182;28;20041;-72
2023/09/09 12:21:56;;;;;;;1.85;1.48;;;43.00;15.20;;;;;;5047606;28;20433;-73
2023/09/09 12:24:22;;;;;;;1.23;1.08;;;42.20;15.80;;;;;;5030460;28;20489;-73
2023/09/09 12:27:07;;;;;;;2.50;1.52;;;43.30;15.20;;;;;;5046431;28;20401;-72
2023/09/09 12:29:33;;;;;;;4.17;1.60;;;45.80;13.80;;;;;;5030228;28;20041;-73
2023/09/09 12:31:59;;;;;;;2.88;1.52;;;47.40;12.70;;;;;;5042811;28;20044;-73
2023/09/09 12:34:26;;;;;;;2.22;1.27;;;48.60;11.60;;;;;;5046862;28;20068;-73
2023/09/09 12:37:11;;;;;;;2.05;1.73;;;49.40;11.00;;;;;;5047693;28;20029;-72
2023/09/09 12:39:37;;;;;;;1.07;0.97;;;50.00;11.20;;;;;;5048147;28;20041;-73
2023/09/09 12:42:22;;;;;;;1.40;1.30;;;50.50;10.60;;;;;;5045522;28;20415;-72
2023/09/09 12:45:10;;;;;;;1.92;1.73;;;50.90;9.70;;;;;;5047425;28;20064;-72
2023/09/09 12:47:36;;;;;;;1.95;1.33;;;51.20;10.10;;;;;;5046666;28;20166;-73
2023/09/09 12:50:02;;;;;;;1.98;1.80;;;51.50;10.00;;;;;;5046504;28;20433;-73
2023/09/09 12:52:46;;;;;;;1.80;1.40;;;51.80;9.70;;;;;;5047651;28;20030;-72
2023/09/09 12:55:14;;;;;;;1.25;1.15;;;52.10;9.90;;;;;;5047124;28;20514;-72
2023/09/09 12:57:40;;;;;;;3.15;2.05;;;51.90;9.50;;;;;;5031596;28;20572;-72
2023/09/09 13:00:09;;;;;;;2.35;2.08;;;52.20;9.60;;;;;;5033809;28;20460;-74
2023/09/09 13:02:35;;;;;;;2.20;1.90;;;52.20;9.50;;;;;;5033256;28;20025;-72
2023/09/09 13:05:01;;;;;;;1.50;1.40;;;52.20;9.70;;;;;;5013794;28;20044;-72
2023/09/09 13:07:27;;;;;;;2.22;2.03;;;52.20;9.70;;;;;;5018985;28;20403;-73
2023/09/09 13:09:53;;;;;;;1.38;1.27;;;52.10;9.50;;;;;;5018148;28;20046;-72
2023/09/09 13:12:19;;;;;;;1.67;1.58;;;52.10;9.90;;;;;;5012269;28;20046;-72
2023/09/09 13:14:45;;;;;;;1.50;1.40;;;52.40;9.60;;;;;;5014254;28;20041;-72
2023/09/09 13:17:11;;;;;;;1.88;1.70;;;52.50;9.40;;;;;;5013931;28;20032;-73
2023/09/09 13:19:37;;;;;;;1.95;1.75;;;52.80;9.30;;;;;;5014161;28;20041;-72
2023/09/09 13:22:03;;;;;;;1.58;1.48;;;53.10;9.60;;;;;;5013695;28;20038;-73
2023/09/09 13:24:29;;;;;;;1.98;1.77;;;52.90;8.40;;;;;;5012969;28;20088;-73
2023/09/09 13:26:55;;;;;;;2.20;1.90;;;52.80;9.00;;;;;;4996129;28;20030;-73
2023/09/09 13:29:21;;;;;;;2.65;2.40;;;52.80;9.10;;;;;;5012746;28;20038;-72
2023/09/09 13:31:47;;;;;;;2.95;2.47;;;52.80;8.90;;;;;;5011932;28;20088;-73
2023/09/09 13:34:13;;;;;;;2.28;1.95;;;53.00;9.20;;;;;;5012800;28;20045;-74
2023/09/09 13:36:39;;;;;;;2.60;1.92;;;53.10;9.30;;;;;;5012285;28;20034;-72
2023/09/09 13:39:05;;;;;;;2.60;2.22;;;53.40;9.10;;;;;;4996158;28;20505;-72
2023/09/09 13:41:31;;;;;;;2.45;2.00;;;53.30;9.10;;;;;;5011596;28;20095;-73
2023/09/09 13:43:57;;;;;;;3.97;3.03;;;53.40;9.20;;;;;;5012092;28;20104;-72
2023/09/09 13:46:24;;;;;;;2.63;1.98;;;53.40;9.10;;;;;;5013458;28;20034;-73
2023/09/09 13:48:50;;;;;;;3.25;2.90;;;53.50;9.10;;;;;;5012218;28;20038;-73
2023/09/09 13:51:16;;;;;;;2.47;1.95;;;53.30;8.00;;;;;;5011506;28;20135;-72
2023/09/09 13:53:42;;;;;;;4.35;2.75;;;52.80;8.90;;;;;;5012358;28;20058;-72
2023/09/09 13:56:08;;;;;;;3.13;2.80;;;52.60;9.20;;;;;;5011972;28;20487;-72
2023/09/09 13:58:34;;;;;;;3.33;2.65;;;52.70;9.20;;;;;;5012161;28;20449;-73
2023/09/09 14:01:00;;;;;;;2.60;2.35;;;52.70;9.10;;;;;;4994766;28;20038;-72
2023/09/09 14:03:26;;;;;;;2.47;2.28;;;52.70;9.20;;;;;;5013589;28;20104;-72
2023/09/09 14:05:56;;;;;;;3.03;2.53;;;52.80;9.10;;;;;;5011901;28;20084;-72
2023/09/09 14:08:22;;;;;;;2.20;2.00;;;52.50;9.20;;;;;;5012593;28;20100;-73
2023/09/09 14:10:48;;;;;;;2.00;1.80;;;52.20;9.10;;;;;;5011030;28;20510;-72
2023/09/09 14:13:15;;;;;;;1.85;1.73;;;52.00;9.50;;;;;;5012324;28;20567;-73
2023/09/09 14:15:41;;;;;;;1.88;1.60;;;52.00;9.50;;;;;;5011851;28;20036;-72